Time;durP1;ratioP1;P1;durP2;ratioP2;P2;SDS_P1;SDS_P2;PMS_P1;PMS_P2;Temp;Humidity;BMP_temperature;BMP_pressure;BME280_temperature;BME280_humidity;BME280_pressure;Samples;Min_cycle;Max_cycle;Signal;HPM_P1;HPM_P2
2022/05/08 00:00:32;;;;;;;4.70;3.73;;;;;;;;;;5027607;28;20195;-75
2022/05/08 00:02:58;;;;;;;5.30;3.97;;;;;;;;;;5041687;28;20282;-75
2022/05/08 00:05:25;;;;;;;4.93;4.47;;;;;;;;;;5029370;28;20190;-75
2022/05/08 00:08:18;;;;;;;5.43;4.07;;;;;;;;;;5030491;28;20244;-75
2022/05/08 00:10:44;;;;;;;4.87;4.40;;;;;;;;;;5030540;28;20273;-75
2022/05/08 00:13:10;;;;;;;4.83;4.33;;;;;;;;;;5027348;28;20224;-75
2022/05/08 00:15:36;;;;;;;5.10;4.70;;;;;;;;;;5031438;28;20955;-75
2022/05/08 00:18:03;;;;;;;6.27;5.67;;;;;;;;;;5031654;28;20258;-75
2022/05/08 00:20:29;;;;;;;5.77;4.90;;;;;;;;;;5020496;28;20214;-75
2022/05/08 00:22:55;;;;;;;5.97;5.47;;;;;;;;;;5030535;28;20198;-75
2022/05/08 00:25:22;;;;;;;6.30;5.70;;;;;;;;;;5029491;28;20179;-75
2022/05/08 00:27:48;;;;;;;6.00;5.40;;;;;;;;;;5028519;28;20202;-75
2022/05/08 00:30:14;;;;;;;5.43;4.93;;;;;;;;;;5026384;28;20178;-75
2022/05/08 00:32:40;;;;;;;6.00;5.00;;;;;;;;;;5031341;28;20324;-75
2022/05/08 00:35:09;;;;;;;5.53;5.03;;;;;;;;;;5024233;28;20646;-75
2022/05/08 00:37:36;;;;;;;5.07;4.57;;;;;;;;;;5031126;28;20206;-75
2022/05/08 00:40:03;;;;;;;6.03;5.50;;;;;;;;;;5029904;28;20206;-75
2022/05/08 00:42:29;;;;;;;6.00;4.60;;;;;;;;;;5030932;28;20183;-75
2022/05/08 00:44:55;;;;;;;5.43;4.93;;;;;;;;;;5015642;28;20689;-75
2022/05/08 00:47:21;;;;;;;5.33;4.70;;;;;;;;;;5019958;28;20260;-75
2022/05/08 00:49:48;;;;;;;5.73;5.13;;;;;;;;;;5030805;28;20204;-75
2022/05/08 00:52:15;;;;;;;5.03;4.60;;;;;;;;;;5022205;28;21132;-75
2022/05/08 00:54:42;;;;;;;4.93;4.53;;;;;;;;;;5031121;28;20634;-75
2022/05/08 00:57:09;;;;;;;5.57;5.07;;;;;;;;;;5030986;28;20205;-75
2022/05/08 00:59:43;;;;;;;5.67;5.07;;;;;;;;;;5025054;28;20205;-75
2022/05/08 01:02:09;;;;;;;7.80;5.83;;;;;;;;;;5029843;28;20190;-75
2022/05/08 01:04:35;;;;;;;6.00;5.23;;;;;;;;;;5030948;28;20190;-75
2022/05/08 01:07:01;;;;;;;7.03;5.10;;;;;;;;;;5030266;28;20194;-75
2022/05/08 01:09:28;;;;;;;6.27;5.10;;;;;;;;;;5029883;28;20177;-75
2022/05/08 01:11:54;;;;;;;8.10;5.20;;;;;;;;;;5030770;28;20183;-75
2022/05/08 01:14:22;;;;;;;5.33;4.83;;;;;;;;;;5030047;28;20313;-75
2022/05/08 01:16:48;;;;;;;5.97;4.63;;;;;;;;;;5025955;28;20199;-75
2022/05/08 01:19:14;;;;;;;7.20;6.10;;;;;;;;;;5019759;28;20207;-75
2022/05/08 01:21:41;;;;;;;7.10;5.60;;;;;;;;;;5030552;28;20240;-75
2022/05/08 01:24:15;;;;;;;6.70;5.90;;;;;;;;;;5026128;28;20176;-75
2022/05/08 01:26:41;;;;;;;8.20;6.43;;;;;;;;;;5021948;28;20205;-75
2022/05/08 01:29:08;;;;;;;6.80;6.10;;;;;;;;;;5021046;28;20269;-75
2022/05/08 01:31:34;;;;;;;6.40;5.80;;;;;;;;;;5029908;28;20216;-75
2022/05/08 01:34:01;;;;;;;7.20;6.47;;;;;;;;;;5028424;28;20183;-75
2022/05/08 01:36:27;;;;;;;7.30;6.60;;;;;;;;;;5029951;28;20610;-75
2022/05/08 01:38:56;;;;;;;7.90;7.10;;;;;;;;;;5029516;28;20179;-75
2022/05/08 01:41:23;;;;;;;9.13;7.33;;;;;;;;;;5030660;28;20190;-75
2022/05/08 01:43:49;;;;;;;8.17;7.43;;;;;;;;;;5037790;28;20656;-75
2022/05/08 01:46:15;;;;;;;8.13;7.27;;;;;;;;;;5033171;28;20685;-75
2022/05/08 01:48:41;;;;;;;9.07;8.20;;;;;;;;;;5033486;28;20635;-75
2022/05/08 01:51:08;;;;;;;9.23;8.33;;;;;;;;;;5033997;28;20309;-75
2022/05/08 01:53:34;;;;;;;9.40;8.40;;;;;;;;;;5023587;28;20592;-75
2022/05/08 01:56:07;;;;;;;8.40;7.70;;;;;;;;;;5021788;28;20318;-75
2022/05/08 01:58:33;;;;;;;7.97;7.27;;;;;;;;;;5035192;28;20283;-75
2022/05/08 02:01:00;;;;;;;9.03;8.13;;;;;;;;;;5033684;28;20340;-75
2022/05/08 02:03:26;;;;;;;8.40;7.67;;;;;;;;;;5039512;28;20650;-75
2022/05/08 02:05:52;;;;;;;7.33;6.63;;;;;;;;;;5033800;28;20166;-75
2022/05/08 02:08:19;;;;;;;7.30;6.60;;;;;;;;;;5033486;28;20175;-75
2022/05/08 02:10:47;;;;;;;8.67;7.80;;;;;;;;;;5032996;28;20206;-75
2022/05/08 02:13:15;;;;;;;8.77;7.97;;;;;;;;;;5032849;28;20195;-75
2022/05/08 02:15:44;;;;;;;8.37;7.60;;;;;;;;;;5028413;28;20182;-75
2022/05/08 02:18:12;;;;;;;10.67;8.10;;;;;;;;;;5031717;28;20658;-75
2022/05/08 02:20:41;;;;;;;9.83;7.83;;;;;;;;;;5030282;28;20209;-75
2022/05/08 02:23:08;;;;;;;9.17;7.13;;;;;;;;;;5015600;28;20194;-75
2022/05/08 02:25:58;;;;;;;8.13;7.33;;;;;;;;;;5016048;28;20616;-75
2022/05/08 02:28:24;;;;;;;9.57;8.67;;;;;;;;;;5027289;28;20194;-75
2022/05/08 02:30:50;;;;;;;8.87;7.97;;;;;;;;;;5030300;28;20193;-75
2022/05/08 02:33:17;;;;;;;10.57;8.57;;;;;;;;;;5029468;28;20193;-75
2022/05/08 02:35:43;;;;;;;7.63;6.93;;;;;;;;;;5026788;28;20175;-75
2022/05/08 02:38:09;;;;;;;8.40;7.67;;;;;;;;;;5029364;28;20186;-75
2022/05/08 02:40:35;;;;;;;9.33;8.47;;;;;;;;;;5028870;28;20681;-75
2022/05/08 02:43:01;;;;;;;9.57;8.67;;;;;;;;;;5033038;28;20182;-75
2022/05/08 02:45:28;;;;;;;10.43;9.27;;;;;;;;;;5031629;28;20178;-75
2022/05/08 02:47:54;;;;;;;9.17;8.27;;;;;;;;;;5032898;28;20210;-75
2022/05/08 02:50:20;;;;;;;9.20;8.30;;;;;;;;;;5032568;28;20174;-75
2022/05/08 02:52:47;;;;;;;9.57;8.67;;;;;;;;;;5026683;28;20269;-75
2022/05/08 03:00:44;;;;;;;9.60;8.60;;;;;;;;;;5032344;28;20329;-75
2022/05/08 03:03:11;;;;;;;8.77;7.70;;;;;;;;;;5023946;28;20183;-75
2022/05/08 03:05:37;;;;;;;10.27;9.37;;;;;;;;;;5023145;28;20521;-75
2022/05/08 03:08:06;;;;;;;10.27;9.27;;;;;;;;;;5028079;28;20257;-75
2022/05/08 03:13:17;;;;;;;10.63;9.53;;;;;;;;;;5014952;28;20187;-75
2022/05/08 03:15:44;;;;;;;9.53;8.57;;;;;;;;;;5032541;28;20175;-75
2022/05/08 03:18:10;;;;;;;10.50;9.50;;;;;;;;;;5032751;28;20187;-75
2022/05/08 03:20:37;;;;;;;9.97;9.03;;;;;;;;;;5027735;28;20207;-75
2022/05/08 03:23:04;;;;;;;11.20;10.00;;;;;;;;;;5028780;28;20183;-75
2022/05/08 03:25:30;;;;;;;9.93;9.03;;;;;;;;;;5030845;28;20798;-75
2022/05/08 03:27:56;;;;;;;9.87;8.97;;;;;;;;;;5027248;28;20293;-75
2022/05/08 03:30:24;;;;;;;10.83;9.73;;;;;;;;;;5011995;28;20820;-75
2022/05/08 03:32:50;;;;;;;11.33;10.23;;;;;;;;;;5030219;28;20768;-75
2022/05/08 03:35:16;;;;;;;11.23;10.13;;;;;;;;;;5031413;28;20194;-75
2022/05/08 03:37:42;;;;;;;10.50;8.70;;;;;;;;;;5014919;28;20265;-75
2022/05/08 03:40:08;;;;;;;10.50;9.50;;;;;;;;;;5020453;28;20206;-75
2022/05/08 03:42:35;;;;;;;10.53;9.50;;;;;;;;;;5032090;28;20189;-75
2022/05/08 03:45:01;;;;;;;10.47;9.47;;;;;;;;;;5031992;28;20244;-75
2022/05/08 03:47:28;;;;;;;9.20;8.30;;;;;;;;;;5031479;28;20205;-74
2022/05/08 03:49:54;;;;;;;10.77;9.10;;;;;;;;;;5031186;28;20182;-75
2022/05/08 03:52:20;;;;;;;9.83;8.93;;;;;;;;;;5031838;28;20265;-75
2022/05/08 03:54:46;;;;;;;12.20;10.20;;;;;;;;;;5031461;28;20200;-75
2022/05/08 03:57:12;;;;;;;10.80;9.80;;;;;;;;;;5031723;28;20194;-75
2022/05/08 03:59:38;;;;;;;9.13;8.20;;;;;;;;;;5030041;28;20689;-75
2022/05/08 04:02:05;;;;;;;10.40;9.30;;;;;;;;;;5029982;28;20313;-75
2022/05/08 04:04:31;;;;;;;10.97;9.97;;;;;;;;;;5030369;28;20214;-75
2022/05/08 04:06:57;;;;;;;9.47;8.57;;;;;;;;;;5032204;28;20199;-75
2022/05/08 04:09:23;;;;;;;10.70;9.70;;;;;;;;;;5030956;28;20190;-75
2022/05/08 04:11:49;;;;;;;10.83;9.73;;;;;;;;;;5031354;28;20216;-75
2022/05/08 04:14:15;;;;;;;11.63;10.50;;;;;;;;;;5030550;28;20189;-75
2022/05/08 04:16:41;;;;;;;11.07;10.07;;;;;;;;;;5027062;28;20199;-75
2022/05/08 04:19:08;;;;;;;9.90;9.00;;;;;;;;;;5011307;28;20571;-75
2022/05/08 04:21:34;;;;;;;10.83;9.83;;;;;;;;;;5011927;28;20607;-75
2022/05/08 04:24:18;;;;;;;11.13;10.13;;;;;;;;;;5011933;28;20183;-75
2022/05/08 04:26:44;;;;;;;10.27;9.27;;;;;;;;;;5021401;28;20268;-75
2022/05/08 04:29:11;;;;;;;10.33;9.33;;;;;;;;;;5030609;28;20198;-75
2022/05/08 04:31:37;;;;;;;10.80;9.70;;;;;;;;;;5030926;28;20182;-75
2022/05/08 04:34:04;;;;;;;9.87;8.87;;;;;;;;;;5031564;28;20328;-75
2022/05/08 04:36:31;;;;;;;10.83;9.80;;;;;;;;;;5031366;28;20269;-75
2022/05/08 04:38:57;;;;;;;10.27;9.27;;;;;;;;;;5030792;28;20676;-75
2022/05/08 04:41:23;;;;;;;10.97;8.80;;;;;;;;;;5029563;28;20190;-75
2022/05/08 04:43:53;;;;;;;10.27;9.27;;;;;;;;;;5024612;28;20187;-75
2022/05/08 04:46:20;;;;;;;10.73;9.73;;;;;;;;;;5024628;28;20703;-75
2022/05/08 04:48:46;;;;;;;11.13;10.03;;;;;;;;;;5030278;28;20552;-75
2022/05/08 04:51:12;;;;;;;13.80;10.70;;;;;;;;;;5030636;28;20198;-75
2022/05/08 04:53:38;;;;;;;11.50;10.20;;;;;;;;;;5030982;28;20653;-75
2022/05/08 04:56:04;;;;;;;10.10;9.10;;;;;;;;;;5027157;28;20202;-75
2022/05/08 04:58:32;;;;;;;12.03;9.80;;;;;;;;;;5028251;28;20194;-75
2022/05/08 05:00:58;;;;;;;9.77;8.83;;;;;;;;;;5027666;28;20210;-75
2022/05/08 05:03:25;;;;;;;11.90;9.37;;;;;;;;;;5019143;28;20218;-75
2022/05/08 05:05:51;;;;;;;11.07;9.97;;;;;;;;;;5028716;28;20642;-75
2022/05/08 05:08:28;;;;;;;10.60;9.57;;;;;;;;;;5029584;28;20217;-75
2022/05/08 05:10:54;;;;;;;11.60;10.50;;;;;;;;;;5028390;28;20202;-75
2022/05/08 05:13:20;;;;;;;10.37;9.37;;;;;;;;;;5023184;28;20179;-75
2022/05/08 05:15:46;;;;;;;10.33;9.33;;;;;;;;;;5018041;28;20183;-75
2022/05/08 05:18:12;;;;;;;9.37;8.50;;;;;;;;;;5015267;28;20175;-75
2022/05/08 05:20:38;;;;;;;10.20;9.23;;;;;;;;;;5016517;28;20210;-75
2022/05/08 05:23:05;;;;;;;10.33;8.90;;;;;;;;;;5015128;28;20181;-75
2022/05/08 05:25:31;;;;;;;9.80;8.90;;;;;;;;;;5042993;28;20593;-76
2022/05/08 05:27:57;;;;;;;10.13;9.23;;;;;;;;;;5031639;28;20647;-75
2022/05/08 05:30:23;;;;;;;9.47;8.60;;;;;;;;;;5030932;28;20206;-75
2022/05/08 05:32:49;;;;;;;9.60;8.70;;;;;;;;;;5031885;28;20178;-75
2022/05/08 05:35:16;;;;;;;9.30;8.40;;;;;;;;;;5023550;28;20179;-75
2022/05/08 05:37:42;;;;;;;8.17;7.40;;;;;;;;;;5034412;28;20213;-75
2022/05/08 05:40:09;;;;;;;9.50;8.17;;;;;;;;;;5029052;28;20240;-75
2022/05/08 05:42:35;;;;;;;8.97;8.03;;;;;;;;;;5033538;28;20190;-75
2022/05/08 05:45:01;;;;;;;8.60;7.80;;;;;;;;;;5033425;28;20175;-75
2022/05/08 05:50:12;;;;;;;8.10;7.40;;;;;;;;;;5025786;28;20183;-74
2022/05/08 05:52:38;;;;;;;9.03;8.17;;;;;;;;;;5014363;28;20662;-74
2022/05/08 05:55:06;;;;;;;8.40;7.57;;;;;;;;;;5014576;28;20190;-75
2022/05/08 05:57:33;;;;;;;7.40;6.77;;;;;;;;;;5031387;28;20202;-74
2022/05/08 05:59:59;;;;;;;9.30;8.40;;;;;;;;;;5045449;28;20223;-74
2022/05/08 06:02:25;;;;;;;8.63;7.73;;;;;;;;;;5028041;28;20675;-74
2022/05/08 06:04:51;;;;;;;7.97;7.20;;;;;;;;;;5028302;28;20740;-75
2022/05/08 06:07:18;;;;;;;8.63;7.83;;;;;;;;;;5030777;28;20216;-75
2022/05/08 06:09:44;;;;;;;8.60;7.80;;;;;;;;;;5031765;28;20190;-75
2022/05/08 06:12:10;;;;;;;8.80;8.00;;;;;;;;;;5033764;28;20214;-74
2022/05/08 06:14:37;;;;;;;8.17;7.33;;;;;;;;;;5026261;28;20205;-75
2022/05/08 06:17:03;;;;;;;8.57;7.67;;;;;;;;;;5025944;28;20321;-75
2022/05/08 06:19:31;;;;;;;8.57;7.67;;;;;;;;;;5027595;28;20214;-75
2022/05/08 06:21:57;;;;;;;9.10;8.30;;;;;;;;;;5027112;28;20185;-74
2022/05/08 06:24:24;;;;;;;8.80;8.00;;;;;;;;;;5021848;28;20183;-75
2022/05/08 06:26:50;;;;;;;9.33;8.30;;;;;;;;;;5031111;28;20530;-74
2022/05/08 06:29:16;;;;;;;10.00;8.00;;;;;;;;;;5028644;28;20202;-75
2022/05/08 06:31:43;;;;;;;8.07;7.37;;;;;;;;;;5027358;28;20252;-74
2022/05/08 06:34:09;;;;;;;7.93;7.13;;;;;;;;;;5015252;28;20179;-74
2022/05/08 06:36:35;;;;;;;7.83;7.10;;;;;;;;;;5029883;28;20214;-74
2022/05/08 06:39:01;;;;;;;9.17;7.13;;;;;;;;;;5032446;28;20254;-77
2022/05/08 06:41:28;;;;;;;10.97;7.03;;;;;;;;;;5033056;28;20634;-75
2022/05/08 06:43:54;;;;;;;7.77;6.97;;;;;;;;;;5023804;28;20179;-73
2022/05/08 06:46:20;;;;;;;8.03;7.20;;;;;;;;;;5028066;28;20207;-73
2022/05/08 06:48:50;;;;;;;6.97;6.27;;;;;;;;;;5028064;28;20598;-74
2022/05/08 06:51:16;;;;;;;7.57;6.67;;;;;;;;;;5032453;28;20662;-74
2022/05/08 06:53:43;;;;;;;8.20;7.40;;;;;;;;;;5024794;28;20186;-74
2022/05/08 06:56:13;;;;;;;8.00;7.30;;;;;;;;;;5029643;28;20207;-74
2022/05/08 07:01:34;;;;;;;12.03;7.23;;;;;;;;;;5025952;28;20187;-74
2022/05/08 07:04:04;;;;;;;7.40;6.70;;;;;;;;;;5030074;28;20693;-74
2022/05/08 07:06:30;;;;;;;6.93;6.27;;;;;;;;;;5025648;28;20248;-74
2022/05/08 07:08:56;;;;;;;8.10;6.17;;;;;;;;;;5017944;28;20174;-85
2022/05/08 07:11:22;;;;;;;7.30;6.60;;;;;;;;;;5032815;28;20190;-76
2022/05/08 07:13:48;;;;;;;7.43;6.63;;;;;;;;;;5032523;28;20182;-76
2022/05/08 07:16:14;;;;;;;6.53;5.93;;;;;;;;;;5011594;28;20196;-76
2022/05/08 07:18:41;;;;;;;6.00;5.43;;;;;;;;;;5023494;28;20210;-76
2022/05/08 07:21:07;;;;;;;6.30;5.70;;;;;;;;;;5013020;28;20261;-76
2022/05/08 07:23:33;;;;;;;8.27;6.00;;;;;;;;;;5027275;28;20186;-76
2022/05/08 07:25:59;;;;;;;6.70;5.57;;;;;;;;;;5030528;28;20260;-76
2022/05/08 07:28:27;;;;;;;6.53;5.57;;;;;;;;;;5029444;28;20186;-76
2022/05/08 07:30:54;;;;;;;6.37;5.43;;;;;;;;;;5031875;28;20179;-76
2022/05/08 07:33:21;;;;;;;5.67;5.03;;;;;;;;;;5030993;28;20181;-76
2022/05/08 07:38:32;;;;;;;7.67;5.20;;;;;;;;;;5027878;28;20183;-76
2022/05/08 07:40:59;;;;;;;6.40;4.90;;;;;;;;;;5030878;28;20209;-76
2022/05/08 07:43:28;;;;;;;7.63;4.40;;;;;;;;;;5031169;28;20545;-76
2022/05/08 07:45:54;;;;;;;5.03;4.50;;;;;;;;;;5031265;28;20565;-77
2022/05/08 07:48:21;;;;;;;5.37;4.57;;;;;;;;;;5031275;28;20170;-77
2022/05/08 07:50:47;;;;;;;6.53;4.80;;;;;;;;;;5030167;28;20191;-76
2022/05/08 07:53:13;;;;;;;5.17;4.67;;;;;;;;;;5029862;28;20190;-76
2022/05/08 07:55:40;;;;;;;5.57;4.50;;;;;;;;;;5031196;28;20179;-79
2022/05/08 07:58:06;;;;;;;5.37;4.87;;;;;;;;;;5030783;28;20178;-76
2022/05/08 08:00:32;;;;;;;4.93;4.43;;;;;;;;;;5030222;28;20198;-76
2022/05/08 08:02:59;;;;;;;5.00;4.50;;;;;;;;;;5029716;28;20282;-76
2022/05/08 08:05:27;;;;;;;5.30;4.80;;;;;;;;;;5031090;28;20206;-76
2022/05/08 08:07:55;;;;;;;6.10;4.57;;;;;;;;;;5030865;28;20222;-77
2022/05/08 08:10:21;;;;;;;5.33;4.80;;;;;;;;;;5030011;28;20240;-77
2022/05/08 08:12:48;;;;;;;5.60;4.90;;;;;;;;;;5027288;28;20190;-77
2022/05/08 08:15:14;;;;;;;8.27;4.90;;;;;;;;;;5030702;28;20273;-76
2022/05/08 08:17:41;;;;;;;6.67;5.10;;;;;;;;;;5030154;28;20282;-76
2022/05/08 08:20:08;;;;;;;5.13;4.70;;;;;;;;;;5027335;28;20202;-76
2022/05/08 08:22:34;;;;;;;5.43;4.73;;;;;;;;;;5030393;28;20182;-76
2022/05/08 08:25:00;;;;;;;4.93;4.43;;;;;;;;;;5028879;28;20202;-76
2022/05/08 08:27:27;;;;;;;6.83;4.73;;;;;;;;;;5029961;28;20190;-77
2022/05/08 08:29:54;;;;;;;4.90;4.50;;;;;;;;;;5027407;28;20198;-77
2022/05/08 08:32:21;;;;;;;5.97;4.57;;;;;;;;;;5028950;28;20206;-77
2022/05/08 08:34:48;;;;;;;5.17;4.47;;;;;;;;;;5027811;28;20227;-77
2022/05/08 08:37:14;;;;;;;5.47;4.97;;;;;;;;;;5030385;28;20240;-77
2022/05/08 08:39:40;;;;;;;6.80;4.80;;;;;;;;;;5029481;28;20205;-77
2022/05/08 08:42:12;;;;;;;5.83;4.80;;;;;;;;;;5030635;28;20403;-76
2022/05/08 08:47:44;;;;;;;5.40;4.90;;;;;;;;;;5029222;28;20202;-76
2022/05/08 08:50:11;;;;;;;6.50;4.80;;;;;;;;;;5027077;28;20187;-78
2022/05/08 08:52:37;;;;;;;5.43;4.70;;;;;;;;;;5028699;28;20251;-77
2022/05/08 08:55:07;;;;;;;5.10;4.30;;;;;;;;;;5021416;28;20191;-76
2022/05/08 08:57:33;;;;;;;5.20;4.70;;;;;;;;;;5024913;28;20230;-76
2022/05/08 08:59:59;;;;;;;7.90;4.83;;;;;;;;;;5026609;28;20210;-76
2022/05/08 09:02:26;;;;;;;6.10;4.67;;;;;;;;;;5029111;28;20209;-76
2022/05/08 09:04:58;;;;;;;5.10;4.57;;;;;;;;;;5030880;28;20179;-76
2022/05/08 09:07:39;;;;;;;5.70;4.83;;;;;;;;;;5020682;28;20199;-76
2022/05/08 09:10:16;;;;;;;5.17;4.67;;;;;;;;;;5028310;28;20193;-77
2022/05/08 09:12:44;;;;;;;5.50;5.00;;;;;;;;;;5025575;28;20190;-76
2022/05/08 09:15:36;;;;;;;5.27;4.83;;;;;;;;;;5026923;28;20183;-76
2022/05/08 09:18:04;;;;;;;4.87;4.20;;;;;;;;;;5027056;28;20978;-76
2022/05/08 09:20:30;;;;;;;5.17;4.67;;;;;;;;;;5024323;28;20221;-76
2022/05/08 09:23:07;;;;;;;5.67;4.57;;;;;;;;;;5024411;28;20194;-76
2022/05/08 09:25:52;;;;;;;5.17;4.67;;;;;;;;;;5022668;28;20194;-76
2022/05/08 09:28:19;;;;;;;5.37;4.87;;;;;;;;;;5024464;28;20240;-76
2022/05/08 09:31:04;;;;;;;6.60;4.30;;;;;;;;;;5025695;28;20301;-76
2022/05/08 09:33:43;;;;;;;5.40;4.90;;;;;;;;;;5024726;28;20596;-76
2022/05/08 09:36:10;;;;;;;5.27;4.77;;;;;;;;;;5024949;28;20214;-76
2022/05/08 09:38:44;;;;;;;5.27;4.60;;;;;;;;;;5025133;28;20205;-76
2022/05/08 09:41:10;;;;;;;5.67;5.07;;;;;;;;;;5024159;28;20661;-76
2022/05/08 09:43:37;;;;;;;6.50;5.30;;;;;;;;;;5024877;28;20191;-76
2022/05/08 09:46:05;;;;;;;5.00;4.60;;;;;;;;;;5025056;28;20236;-76
2022/05/08 09:48:33;;;;;;;5.33;4.40;;;;;;;;;;5022776;28;20265;-76
2022/05/08 09:51:01;;;;;;;5.20;4.70;;;;;;;;;;5023705;28;20709;-76
2022/05/08 09:53:28;;;;;;;5.23;4.83;;;;;;;;;;5024768;28;20183;-76
2022/05/08 09:56:21;;;;;;;6.27;4.80;;;;;;;;;;5024861;28;20237;-76
2022/05/08 09:58:48;;;;;;;6.00;4.93;;;;;;;;;;5022941;28;20689;-78
2022/05/08 10:01:15;;;;;;;5.33;4.90;;;;;;;;;;5023470;28;20264;-76
2022/05/08 10:03:43;;;;;;;5.20;4.70;;;;;;;;;;5027062;28;20183;-75
2022/05/08 10:06:10;;;;;;;5.33;4.83;;;;;;;;;;5029409;28;20210;-76
2022/05/08 10:08:37;;;;;;;6.77;4.90;;;;;;;;;;5028918;28;20178;-76
2022/05/08 10:14:14;;;;;;;5.07;4.50;;;;;;;;;;5029382;28;20187;-75
2022/05/08 10:16:47;;;;;;;5.33;4.67;;;;;;;;;;5028830;28;20664;-82
2022/05/08 10:21:57;;;;;;;5.07;4.60;;;;;;;;;;5029346;28;20812;-79
2022/05/08 10:24:42;;;;;;;5.57;5.00;;;;;;;;;;5031415;28;20178;-74
2022/05/08 10:27:20;;;;;;;5.00;4.60;;;;;;;;;;5023719;28;20233;-75
2022/05/08 10:29:49;;;;;;;4.90;4.50;;;;;;;;;;5030213;28;20208;-75
2022/05/08 10:32:31;;;;;;;4.83;4.40;;;;;;;;;;5032014;28;20183;-75
2022/05/08 10:35:09;;;;;;;4.97;4.47;;;;;;;;;;5027543;28;20630;-75
2022/05/08 10:37:36;;;;;;;4.90;4.40;;;;;;;;;;5029973;28;20565;-75
2022/05/08 10:40:03;;;;;;;5.03;4.27;;;;;;;;;;5029134;28;20221;-75
2022/05/08 10:42:39;;;;;;;7.33;4.57;;;;;;;;;;5029574;28;20175;-75
2022/05/08 10:45:05;;;;;;;5.63;4.40;;;;;;;;;;5031477;28;20174;-75
2022/05/08 10:47:40;;;;;;;4.97;4.30;;;;;;;;;;5031271;28;20194;-75
2022/05/08 10:50:09;;;;;;;5.13;4.63;;;;;;;;;;5031395;28;20558;-75
2022/05/08 10:52:46;;;;;;;5.33;4.73;;;;;;;;;;5028639;28;20737;-75
2022/05/08 10:55:14;;;;;;;6.07;4.80;;;;;;;;;;5031522;28;20183;-75
2022/05/08 10:57:41;;;;;;;4.60;4.27;;;;;;;;;;5026020;28;20210;-75
2022/05/08 11:00:08;;;;;;;6.00;4.63;;;;;;;;;;5030626;28;20214;-75
2022/05/08 11:02:55;;;;;;;4.70;4.20;;;;;;;;;;5032718;28;20586;-75
2022/05/08 11:05:26;;;;;;;4.83;4.43;;;;;;;;;;5033054;28;20183;-75
2022/05/08 11:07:57;;;;;;;4.50;4.10;;;;;;;;;;5021737;28;20206;-75
2022/05/08 11:10:25;;;;;;;4.67;4.27;;;;;;;;;;5026192;28;20194;-75
2022/05/08 11:12:59;;;;;;;5.77;4.33;;;;;;;;;;5029630;28;20226;-75
2022/05/08 11:15:25;;;;;;;5.07;3.87;;;;;;;;;;5007585;28;20196;-75
2022/05/08 11:18:03;;;;;;;4.30;3.90;;;;;;;;;;5017407;28;20202;-75
2022/05/08 11:20:30;;;;;;;4.87;4.13;;;;;;;;;;5027942;28;20671;-75
2022/05/08 11:23:20;;;;;;;7.10;4.53;;;;;;;;;;5018521;28;20198;-75
2022/05/08 11:25:50;;;;;;;5.27;4.23;;;;;;;;;;5029635;28;20170;-76
2022/05/08 11:28:47;;;;;;;3.90;3.60;;;;;;;;;;5015571;28;20633;-76
2022/05/08 11:31:14;;;;;;;5.23;4.07;;;;;;;;;;5036032;28;20192;-76
2022/05/08 11:36:35;;;;;;;5.40;4.07;;;;;;;;;;5027558;28;20224;-75
2022/05/08 11:39:04;;;;;;;5.03;4.40;;;;;;;;;;5028476;28;20191;-76
2022/05/08 11:41:33;;;;;;;4.47;4.07;;;;;;;;;;5030052;28;20228;-75
2022/05/08 11:44:03;;;;;;;5.27;3.77;;;;;;;;;;5029625;28;20184;-75
2022/05/08 11:46:37;;;;;;;4.03;3.60;;;;;;;;;;5024519;28;20655;-75
2022/05/08 11:49:16;;;;;;;3.90;3.50;;;;;;;;;;5022624;28;20177;-76
2022/05/08 11:51:44;;;;;;;3.50;3.10;;;;;;;;;;5023776;28;20546;-76
2022/05/08 11:54:21;;;;;;;3.60;3.30;;;;;;;;;;5027151;28;20613;-76
2022/05/08 11:56:51;;;;;;;3.80;3.30;;;;;;;;;;5028157;28;20211;-76
2022/05/08 11:59:24;;;;;;;4.53;3.70;;;;;;;;;;5019258;28;20195;-77
2022/05/08 12:01:56;;;;;;;4.07;3.37;;;;;;;;;;5038086;28;20205;-77
2022/05/08 12:04:29;;;;;;;3.80;3.50;;;;;;;;;;5029981;28;20251;-77
2022/05/08 12:07:08;;;;;;;4.57;4.10;;;;;;;;;;5028577;28;20206;-75
2022/05/08 12:09:39;;;;;;;7.13;5.33;;;;;;;;;;5034261;28;20186;-78
2022/05/08 12:12:22;;;;;;;4.30;3.90;;;;;;;;;;5029719;28;20191;-78
2022/05/08 12:14:48;;;;;;;4.40;4.00;;;;;;;;;;5031683;28;20566;-79
2022/05/08 12:17:14;;;;;;;6.13;3.63;;;;;;;;;;5032263;28;20197;-78
2022/05/08 12:19:51;;;;;;;4.17;3.33;;;;;;;;;;5035111;28;20216;-78
2022/05/08 12:22:22;;;;;;;4.13;3.23;;;;;;;;;;5028653;28;20184;-78
2022/05/08 12:24:48;;;;;;;3.70;3.40;;;;;;;;;;5022989;28;20548;-78
2022/05/08 12:27:14;;;;;;;3.73;3.00;;;;;;;;;;5028372;28;20221;-78
2022/05/08 12:29:43;;;;;;;3.10;2.90;;;;;;;;;;5036723;28;20240;-78
2022/05/08 12:32:09;;;;;;;3.10;2.80;;;;;;;;;;5030470;28;20183;-78
2022/05/08 12:34:37;;;;;;;2.93;2.70;;;;;;;;;;5030423;28;20197;-78
2022/05/08 12:37:03;;;;;;;3.20;2.90;;;;;;;;;;5022523;28;20212;-78
2022/05/08 12:39:30;;;;;;;5.27;3.30;;;;;;;;;;5027089;28;20678;-78
2022/05/08 12:41:56;;;;;;;3.47;3.17;;;;;;;;;;5030665;28;20178;-78
2022/05/08 12:44:23;;;;;;;3.07;2.80;;;;;;;;;;5025997;28;20186;-78
2022/05/08 12:46:49;;;;;;;3.27;2.90;;;;;;;;;;5028869;28;20544;-78
2022/05/08 12:49:16;;;;;;;3.00;2.70;;;;;;;;;;5028742;28;20211;-78
2022/05/08 12:51:42;;;;;;;4.17;2.60;;;;;;;;;;5023371;28;20172;-78
2022/05/08 12:54:09;;;;;;;5.13;2.97;;;;;;;;;;5025341;28;20262;-78
2022/05/08 12:56:35;;;;;;;4.20;3.33;;;;;;;;;;5031138;28;20677;-78
2022/05/08 13:01:48;;;;;;;3.80;3.50;;;;;;;;;;5030420;28;20634;-78
2022/05/08 13:04:14;;;;;;;4.33;3.33;;;;;;;;;;5041528;28;20186;-78
2022/05/08 13:06:41;;;;;;;3.50;3.20;;;;;;;;;;5031363;28;20202;-78
2022/05/08 13:09:07;;;;;;;4.53;3.60;;;;;;;;;;5030300;28;20187;-79
2022/05/08 13:11:35;;;;;;;3.47;3.17;;;;;;;;;;5025398;28;20237;-77
2022/05/08 13:14:01;;;;;;;3.20;2.90;;;;;;;;;;5020455;28;20174;-77
2022/05/08 13:16:28;;;;;;;3.50;2.90;;;;;;;;;;5030655;28;20258;-77
2022/05/08 13:18:55;;;;;;;3.23;2.83;;;;;;;;;;5028643;28;20180;-77
2022/05/08 13:21:21;;;;;;;3.70;3.17;;;;;;;;;;5025686;28;20219;-77
2022/05/08 13:23:47;;;;;;;3.10;2.90;;;;;;;;;;5028674;28;20203;-77
2022/05/08 13:26:14;;;;;;;4.67;3.00;;;;;;;;;;5029487;28;20232;-76
2022/05/08 13:28:41;;;;;;;4.17;3.17;;;;;;;;;;5029928;28;20183;-77
2022/05/08 13:31:07;;;;;;;5.57;3.60;;;;;;;;;;5030315;28;20259;-77
2022/05/08 13:33:34;;;;;;;4.03;3.63;;;;;;;;;;5024009;28;20240;-76
2022/05/08 13:36:03;;;;;;;4.90;3.37;;;;;;;;;;5022969;28;20494;-76
2022/05/08 13:38:29;;;;;;;3.73;3.43;;;;;;;;;;5019630;28;20634;-76
2022/05/08 13:41:01;;;;;;;4.00;3.60;;;;;;;;;;5028219;28;20204;-76
2022/05/08 13:43:27;;;;;;;4.07;3.30;;;;;;;;;;5027040;28;20262;-76
2022/05/08 13:45:54;;;;;;;3.93;3.60;;;;;;;;;;5019859;28;20202;-76
2022/05/08 13:48:20;;;;;;;3.50;3.20;;;;;;;;;;5021667;28;20171;-76
2022/05/08 13:50:47;;;;;;;4.67;3.70;;;;;;;;;;5033011;28;20186;-76
2022/05/08 13:53:14;;;;;;;4.10;3.70;;;;;;;;;;5034174;28;20312;-75
2022/05/08 13:55:41;;;;;;;4.13;3.60;;;;;;;;;;5034316;28;20178;-76
2022/05/08 13:58:11;;;;;;;3.90;3.60;;;;;;;;;;5028761;28;20226;-76
2022/05/08 14:00:37;;;;;;;4.87;3.60;;;;;;;;;;5020121;28;20225;-76
2022/05/08 14:03:05;;;;;;;3.90;3.50;;;;;;;;;;5021502;28;20186;-76
2022/05/08 14:05:31;;;;;;;3.70;3.30;;;;;;;;;;5014187;28;20185;-76
2022/05/08 14:07:58;;;;;;;6.43;3.80;;;;;;;;;;5020294;28;20195;-76
2022/05/08 14:10:24;;;;;;;3.80;3.50;;;;;;;;;;5029159;28;20634;-76
2022/05/08 14:12:50;;;;;;;3.97;3.57;;;;;;;;;;5025732;28;20572;-76
2022/05/08 14:15:20;;;;;;;4.63;3.90;;;;;;;;;;5026955;28;20270;-75
2022/05/08 14:17:48;;;;;;;7.37;3.73;;;;;;;;;;5027120;28;20708;-75
2022/05/08 14:20:14;;;;;;;4.00;3.33;;;;;;;;;;5032775;28;20198;-75
2022/05/08 14:22:44;;;;;;;4.07;3.67;;;;;;;;;;5033651;28;20291;-75
2022/05/08 14:25:11;;;;;;;5.77;4.00;;;;;;;;;;5027865;28;20188;-75
2022/05/08 14:27:37;;;;;;;4.17;3.50;;;;;;;;;;5025838;28;20279;-74
2022/05/08 14:30:09;;;;;;;3.77;3.47;;;;;;;;;;5032927;28;20182;-75
2022/05/08 14:38:06;;;;;;;6.20;4.27;;;;;;;;;;5021508;28;20206;-74
2022/05/08 14:40:33;;;;;;;4.90;4.40;;;;;;;;;;5031297;28;20271;-74
2022/05/08 14:42:59;;;;;;;4.57;4.17;;;;;;;;;;5026260;28;20178;-75
2022/05/08 14:45:26;;;;;;;4.53;4.13;;;;;;;;;;5033422;28;20189;-76
2022/05/08 14:47:52;;;;;;;4.83;4.43;;;;;;;;;;5029970;28;20202;-74
2022/05/08 14:50:18;;;;;;;6.13;4.80;;;;;;;;;;5032143;28;20183;-74
2022/05/08 14:52:46;;;;;;;5.63;4.80;;;;;;;;;;5025451;28;20188;-79
2022/05/08 14:55:13;;;;;;;4.70;4.20;;;;;;;;;;5028831;28;20226;-78
2022/05/08 14:57:40;;;;;;;4.67;4.20;;;;;;;;;;5030635;28;21579;-78
2022/05/08 15:00:10;;;;;;;4.53;3.90;;;;;;;;;;5023694;28;20251;-79
2022/05/08 15:02:36;;;;;;;4.37;3.97;;;;;;;;;;5026667;28;20195;-79
2022/05/08 15:05:02;;;;;;;4.97;4.37;;;;;;;;;;5023055;28;20180;-79
2022/05/08 15:07:29;;;;;;;4.33;3.70;;;;;;;;;;5019693;28;20632;-79
2022/05/08 15:09:55;;;;;;;6.33;4.10;;;;;;;;;;5022957;28;20240;-79
2022/05/08 15:12:21;;;;;;;5.43;4.17;;;;;;;;;;5020859;28;20621;-79
2022/05/08 15:14:47;;;;;;;10.13;4.03;;;;;;;;;;5022091;28;20204;-79
2022/05/08 15:17:13;;;;;;;4.40;4.00;;;;;;;;;;5020217;28;20301;-78
2022/05/08 15:19:40;;;;;;;4.37;3.97;;;;;;;;;;5031434;28;20216;-81
2022/05/08 15:22:06;;;;;;;4.60;4.20;;;;;;;;;;5026494;28;20180;-78